Terminal Aerodrome Forecast
Issued by NWS

Home | Current Version | Previous Version | Text Only | Print | Product List | Glossary On
Versions: 1 2 3 4 5 6 7 8 9 10 11 12 13 14 15 16 17 18 19
000
FTAK31 PANC 111142
TAFAGK
TAF
PAGK 111142Z 1112/1212 15010KT P6SM VCSH FEW030 OVC045
      TEMPO 1112/1114 VRB05KT
     FM111400 16025G35KT P6SM SCT060 BKN120
     FM120000 16012G20KT P6SM FEW050 BKN100
     FM120300 15006KT P6SM BKN080=

USA.gov is the U.S. government's official web portal to all federal, state and local government web resources and services.